KHGR/HGR METAR and TAF weather

Enter ICAO airport designator
Station Type Date Time Source
KHGR METAR 2019/06/16 20:53 UTC NOAA

KHGR 162053Z 26008KT 10SM FEW049 28/19 A2985 RMK AO2 SLP111 T02830189 56007


Station Type Date Time Source
KHGR Decoded METAR 2019/06/16 20:53 UTC NOAA

HAGERSTOWN REGIONAL AIRPORT, MD, United States (KHGR) 39-42N 077-44W 224M
Jun 16, 2019 - 04:53 PM EDT / 2019.06.16 2053 UTC
Wind: from the W (260 degrees) at 9 MPH (8 KT):0
Visibility: 10 mile(s):0
Sky conditions: mostly clear
Temperature: 82.9 F (28.3 C)
Dew Point: 66.0 F (18.9 C)
Relative Humidity: 56%
Pressure (altimeter): 29.85 in. Hg (1010 hPa)
Pressure tendency: 0.02 inches (0.7 hPa) lower than three hours ago
ob: KHGR 162053Z 26008KT 10SM FEW049 28/19 A2985 RMK AO2 SLP111 T02830189 56007
cycle: 21

Station Type Date Time Source
KHGR TAF UTC NOAA

Error!

Example: see airport list